createdAt,value
2022-09-16T00:00:43.712Z,20.35
2022-09-16T00:03:11.499Z,22.83
2022-09-16T00:05:42.836Z,20.58
2022-09-16T00:08:09.726Z,19.50
2022-09-16T00:10:36.861Z,20.75
2022-09-16T00:13:03.936Z,19.30
2022-09-16T00:15:31.063Z,19.52
2022-09-16T00:17:57.715Z,21.83
2022-09-16T00:20:24.414Z,21.98
2022-09-16T00:22:51.212Z,22.15
2022-09-16T00:25:17.992Z,21.10
2022-09-16T00:27:47.233Z,24.70
2022-09-16T00:30:13.897Z,22.15
2022-09-16T00:32:40.561Z,20.75
2022-09-16T00:35:07.737Z,20.92
2022-09-16T00:37:35.996Z,17.50
2022-09-16T00:40:02.929Z,18.50
2022-09-16T00:42:29.616Z,15.60
2022-09-16T00:45:20.092Z,19.63
2022-09-16T00:48:06.395Z,15.73
2022-09-16T00:50:40.604Z,18.20
2022-09-16T00:53:22.170Z,14.80
2022-09-16T00:55:51.505Z,20.80
2022-09-16T00:58:21.406Z,23.03
2022-09-16T01:00:48.361Z,17.20
2022-09-16T01:03:15.117Z,19.52
2022-09-16T01:05:42.694Z,13.65
2022-09-16T01:08:10.023Z,16.70
2022-09-16T01:10:36.708Z,15.60
2022-09-16T01:13:06.757Z,18.35
2022-09-16T01:15:52.841Z,12.80
2022-09-16T01:18:43.550Z,22.60
2022-09-16T01:21:15.759Z,15.02
2022-09-16T01:23:57.821Z,18.35
2022-09-16T01:26:40.557Z,15.27
2022-09-16T01:29:38.603Z,16.13
2022-09-16T01:32:17.234Z,18.08
2022-09-16T01:35:04.691Z,14.48
2022-09-16T01:38:04.367Z,15.07
2022-09-16T01:40:52.411Z,16.30
2022-09-16T01:43:26.059Z,14.70
2022-09-16T01:46:19.837Z,18.20
2022-09-16T01:49:16.969Z,15.68
2022-09-16T01:51:53.499Z,17.33
2022-09-16T01:54:40.185Z,22.17
2022-09-16T01:57:18.374Z,21.35
2022-09-16T02:00:02.094Z,18.83
2022-09-16T02:02:40.750Z,15.60
2022-09-16T02:05:16.430Z,14.30
2022-09-16T02:07:49.308Z,17.85
2022-09-16T02:10:25.893Z,15.85
2022-09-16T02:13:00.083Z,19.90
2022-09-16T02:15:29.171Z,18.00
2022-09-16T02:18:12.350Z,15.80
2022-09-16T02:20:43.146Z,13.05
2022-09-16T02:23:20.637Z,16.63
2022-09-16T02:25:50.175Z,15.02
2022-09-16T02:28:21.364Z,15.38
2022-09-16T02:30:52.722Z,16.38
2022-09-16T02:33:20.527Z,15.68
2022-09-16T02:35:51.279Z,15.73
2022-09-16T02:38:29.316Z,20.15
2022-09-16T02:41:00.531Z,18.55
2022-09-16T02:43:35.925Z,15.20
2022-09-16T02:46:08.403Z,15.60
2022-09-16T02:48:57.055Z,15.52
2022-09-16T02:51:44.959Z,17.80
2022-09-16T02:54:17.444Z,17.05
2022-09-16T02:56:44.588Z,14.63
2022-09-16T02:59:13.151Z,18.48
2022-09-16T03:01:43.747Z,17.05
2022-09-16T03:04:13.708Z,16.48
2022-09-16T03:06:41.154Z,19.75
2022-09-16T03:09:13.453Z,15.85
2022-09-16T03:12:02.659Z,21.45
2022-09-16T03:15:00.204Z,16.13
2022-09-16T03:17:51.168Z,16.65
2022-09-16T03:20:52.804Z,18.35
2022-09-16T03:23:34.538Z,20.30
2022-09-16T03:26:22.205Z,19.88
2022-09-16T03:29:00.891Z,18.40
2022-09-16T03:31:39.481Z,17.00
2022-09-16T03:34:30.162Z,19.05
2022-09-16T03:37:08.132Z,19.83
2022-09-16T03:39:35.374Z,19.38
2022-09-16T03:42:08.169Z,15.75
2022-09-16T03:44:37.196Z,15.43
2022-09-16T03:47:04.296Z,18.92
2022-09-16T03:49:31.081Z,13.20
2022-09-16T03:51:58.285Z,16.23
2022-09-16T03:54:25.193Z,15.25
2022-09-16T03:56:52.244Z,20.52
2022-09-16T03:59:19.792Z,14.43
2022-09-16T04:01:47.114Z,18.92
2022-09-16T04:04:13.842Z,12.38
2022-09-16T04:06:40.754Z,19.92
2022-09-16T04:09:08.890Z,18.58
2022-09-16T04:11:35.718Z,20.92
2022-09-16T04:14:04.901Z,17.48
2022-09-16T04:16:32.097Z,15.00
2022-09-16T04:18:59.251Z,16.30
2022-09-16T04:21:26.819Z,21.10
2022-09-16T04:23:55.448Z,11.45
2022-09-16T04:26:22.087Z,17.45
2022-09-16T04:28:48.890Z,15.75
2022-09-16T04:31:17.347Z,17.02
2022-09-16T04:33:44.182Z,12.93
2022-09-16T04:36:14.133Z,17.30
2022-09-16T04:38:42.886Z,13.80
2022-09-16T04:41:12.192Z,15.27
2022-09-16T04:43:39.723Z,20.80
2022-09-16T04:46:07.801Z,12.30
2022-09-16T04:48:35.467Z,10.75
2022-09-16T04:51:12.020Z,16.73
2022-09-16T04:53:40.530Z,12.88
2022-09-16T04:56:09.729Z,11.93
2022-09-16T04:58:36.827Z,14.82
2022-09-16T05:01:14.603Z,17.30
2022-09-16T05:03:42.975Z,14.13
2022-09-16T05:06:20.876Z,12.75
2022-09-16T05:08:49.269Z,16.10
2022-09-16T05:11:22.069Z,12.77
2022-09-16T05:13:49.411Z,13.90
2022-09-16T05:16:18.535Z,14.30
2022-09-16T05:18:47.248Z,14.15
2022-09-16T05:21:16.512Z,12.90
2022-09-16T05:23:46.872Z,12.88
2022-09-16T05:26:35.409Z,11.75
2022-09-16T05:29:04.652Z,18.30
2022-09-16T05:31:33.954Z,13.73
2022-09-16T05:34:05.081Z,12.02
2022-09-16T05:36:34.849Z,12.73
2022-09-16T05:39:22.238Z,14.82
2022-09-16T05:41:49.845Z,11.80
2022-09-16T05:44:16.526Z,14.13
2022-09-16T05:46:43.914Z,14.98
2022-09-16T05:49:11.686Z,8.23
2022-09-16T05:51:40.333Z,13.32
2022-09-16T05:54:07.317Z,11.40
2022-09-16T05:56:34.673Z,11.30
2022-09-16T05:59:01.494Z,14.23
2022-09-16T06:01:34.160Z,11.13
2022-09-16T06:04:03.402Z,7.47
2022-09-16T06:06:32.565Z,14.38
2022-09-16T06:09:20.371Z,8.25
2022-09-16T06:11:50.458Z,10.90
2022-09-16T06:14:18.832Z,12.30
2022-09-16T06:16:45.803Z,8.88
2022-09-16T06:19:15.159Z,11.48
2022-09-16T06:21:43.853Z,12.65
2022-09-16T06:24:11.697Z,12.52
2022-09-16T06:26:40.622Z,8.18
2022-09-16T06:29:08.338Z,16.30
2022-09-16T06:31:36.256Z,11.57
2022-09-16T06:34:03.562Z,11.10
2022-09-16T06:36:33.518Z,12.13
2022-09-16T06:39:00.175Z,9.55
2022-09-16T06:41:27.160Z,10.50
2022-09-16T06:43:53.902Z,9.63
2022-09-16T06:46:23.259Z,11.60
2022-09-16T06:48:52.306Z,9.63
2022-09-16T06:51:24.109Z,12.65
2022-09-16T06:53:51.976Z,14.52
2022-09-16T06:56:20.353Z,15.02
2022-09-16T06:58:48.939Z,12.25
2022-09-16T07:01:18.159Z,11.02
2022-09-16T07:03:46.861Z,8.68
2022-09-16T07:06:45.254Z,14.02
2022-09-16T07:09:10.561Z,11.70
2022-09-16T07:11:37.269Z,9.98
2022-09-16T07:14:04.946Z,12.18
2022-09-16T07:16:31.915Z,11.10
2022-09-16T07:19:01.118Z,13.55
2022-09-16T07:21:31.368Z,12.80
2022-09-16T07:24:00.198Z,11.88
2022-09-16T07:26:45.136Z,11.55
2022-09-16T07:29:31.974Z,10.20
2022-09-16T07:31:58.652Z,14.63
2022-09-16T07:34:25.464Z,6.97
2022-09-16T07:36:53.534Z,13.75
2022-09-16T07:39:21.191Z,7.15
2022-09-16T07:41:48.748Z,8.65
2022-09-16T07:44:17.448Z,16.23
2022-09-16T07:46:44.889Z,14.02
2022-09-16T07:49:13.965Z,14.98
2022-09-16T07:51:41.503Z,8.15
2022-09-16T07:54:10.878Z,6.38
2022-09-16T07:56:39.662Z,7.00
2022-09-16T07:59:12.983Z,10.93
2022-09-16T08:01:43.683Z,7.93
2022-09-16T08:04:11.059Z,7.03
2022-09-16T08:06:39.263Z,10.02
2022-09-16T08:09:15.669Z,12.77
2022-09-16T08:11:52.543Z,11.38
2022-09-16T08:14:19.265Z,7.78
2022-09-16T08:16:46.660Z,10.95
2022-09-16T08:19:13.806Z,9.00
2022-09-16T08:21:40.465Z,10.10
2022-09-16T08:24:07.121Z,11.65
2022-09-16T08:26:33.882Z,15.38
2022-09-16T08:29:09.449Z,14.10
2022-09-16T08:31:37.623Z,10.98
2022-09-16T08:34:04.703Z,29.88
2022-09-16T08:36:33.488Z,25.80
2022-09-16T08:39:00.639Z,16.25
2022-09-16T08:42:00.166Z,9.25
2022-09-16T08:44:50.669Z,10.45
2022-09-16T08:49:56.234Z,7.60
2022-09-16T08:52:32.215Z,8.65
2022-09-16T08:55:03.617Z,9.60
2022-09-16T08:57:34.977Z,7.80
2022-09-16T09:00:08.148Z,6.78
2022-09-16T09:02:55.798Z,12.18
2022-09-16T09:05:34.844Z,15.18
2022-09-16T09:08:30.335Z,15.73
2022-09-16T09:11:05.734Z,15.68
2022-09-16T09:13:39.756Z,9.20
2022-09-16T09:16:21.557Z,8.13
2022-09-16T09:19:15.583Z,6.55
2022-09-16T09:21:48.419Z,16.27
2022-09-16T09:24:56.682Z,9.43
2022-09-16T09:27:56.187Z,10.95
2022-09-16T09:30:25.388Z,6.93
2022-09-16T09:33:44.376Z,12.20
2022-09-16T09:37:02.378Z,6.93
2022-09-16T09:39:33.763Z,3.90
2022-09-16T09:42:17.731Z,6.57
2022-09-16T09:45:02.207Z,7.63
2022-09-16T09:47:51.165Z,7.55
2022-09-16T09:50:30.947Z,5.30
2022-09-16T09:53:28.870Z,16.35
2022-09-16T09:56:04.306Z,6.10
2022-09-16T09:58:40.938Z,6.35
2022-09-16T10:01:09.514Z,11.68
2022-09-16T10:03:38.017Z,8.48
2022-09-16T10:06:05.143Z,4.53
2022-09-16T10:08:58.752Z,6.30
2022-09-16T10:11:30.523Z,10.10
2022-09-16T10:14:01.074Z,6.53
2022-09-16T10:16:32.635Z,5.82
2022-09-16T10:19:09.217Z,6.40
2022-09-16T10:21:57.567Z,5.95
2022-09-16T10:24:30.449Z,6.13
2022-09-16T10:26:59.137Z,10.68
2022-09-16T10:29:26.344Z,6.32
2022-09-16T10:31:53.755Z,6.45
2022-09-16T10:34:34.478Z,10.45
2022-09-16T10:37:13.277Z,8.57
2022-09-16T10:39:43.618Z,6.78
2022-09-16T10:44:56.858Z,5.75
2022-09-16T10:47:30.715Z,5.07
2022-09-16T10:50:05.620Z,8.45
2022-09-16T10:52:42.224Z,7.68
2022-09-16T10:55:39.869Z,10.48
2022-09-16T10:58:19.192Z,6.72
2022-09-16T11:01:12.482Z,8.30
2022-09-16T11:04:14.008Z,7.63
2022-09-16T11:07:16.022Z,7.43
2022-09-16T11:10:05.075Z,10.63
2022-09-16T11:12:50.512Z,11.82
2022-09-16T11:15:28.087Z,7.78
2022-09-16T11:18:38.304Z,6.90
2022-09-16T11:21:31.352Z,8.82
2022-09-16T11:24:22.612Z,7.55
2022-09-16T11:26:55.550Z,6.68
2022-09-16T11:29:59.559Z,9.02
2022-09-16T11:32:36.013Z,5.95
2022-09-16T11:35:30.850Z,8.43
2022-09-16T11:37:57.597Z,9.73
2022-09-16T11:40:40.623Z,8.98
2022-09-16T11:43:28.687Z,7.38
2022-09-16T11:46:08.164Z,7.03
2022-09-16T11:48:49.925Z,7.10
2022-09-16T11:51:46.830Z,6.57
2022-09-16T11:54:25.144Z,6.72
2022-09-16T11:57:02.340Z,6.18
2022-09-16T11:59:41.904Z,5.07
2022-09-16T12:02:40.737Z,4.55
2022-09-16T12:05:23.510Z,4.93
2022-09-16T12:08:13.386Z,4.78
2022-09-16T12:10:48.215Z,8.32
2022-09-16T12:13:23.486Z,6.88
2022-09-16T12:15:58.379Z,4.13
2022-09-16T12:18:30.775Z,3.65
2022-09-16T12:21:08.980Z,5.32
2022-09-16T12:23:41.802Z,6.43
2022-09-16T12:26:16.480Z,4.28
2022-09-16T12:28:56.109Z,5.00
2022-09-16T12:31:35.132Z,3.60
2022-09-16T12:34:12.140Z,4.40
2022-09-16T12:36:43.095Z,6.88
2022-09-16T12:39:12.687Z,8.35
2022-09-16T12:42:06.925Z,8.90
2022-09-16T12:44:36.557Z,4.18
2022-09-16T12:47:21.262Z,13.13
2022-09-16T12:50:06.551Z,6.18
2022-09-16T12:53:00.344Z,12.50
2022-09-16T12:55:56.271Z,7.90
2022-09-16T12:58:46.693Z,8.93
2022-09-16T13:01:30.341Z,9.45
2022-09-16T13:04:08.757Z,6.95
2022-09-16T13:06:40.166Z,5.43
2022-09-16T13:09:25.499Z,8.23
2022-09-16T13:14:54.980Z,4.25
2022-09-16T13:17:31.558Z,8.10
2022-09-16T13:20:07.372Z,6.00
2022-09-16T13:22:47.187Z,8.10
2022-09-16T13:25:55.475Z,23.75
2022-09-16T13:28:38.279Z,7.70
2022-09-16T13:31:14.370Z,4.85
2022-09-16T13:33:49.971Z,17.48
2022-09-16T13:36:31.776Z,17.05
2022-09-16T13:39:10.837Z,13.85
2022-09-16T13:41:46.956Z,8.27
2022-09-16T13:44:33.670Z,16.85
2022-09-16T13:47:09.571Z,7.18
2022-09-16T13:49:45.234Z,8.07
2022-09-16T13:52:16.574Z,7.40
2022-09-16T13:55:09.909Z,6.68
2022-09-16T13:57:42.408Z,4.43
2022-09-16T14:00:17.428Z,7.00
2022-09-16T14:02:44.105Z,6.50
2022-09-16T14:05:32.923Z,11.93
2022-09-16T14:08:25.948Z,12.60
2022-09-16T14:11:15.953Z,7.90
2022-09-16T14:13:50.476Z,10.90
2022-09-16T14:16:29.195Z,10.00
2022-09-16T14:19:22.085Z,5.70
2022-09-16T14:22:01.812Z,5.85
2022-09-16T14:24:38.303Z,9.43
2022-09-16T14:27:06.424Z,10.88
2022-09-16T14:29:33.081Z,4.85
2022-09-16T14:32:00.059Z,5.60
2022-09-16T14:34:36.379Z,13.60
2022-09-16T14:37:05.230Z,11.70
2022-09-16T14:39:32.953Z,7.60
2022-09-16T14:42:03.604Z,8.80
2022-09-16T14:44:40.781Z,3.80
2022-09-16T14:47:47.419Z,5.35
2022-09-16T14:50:27.026Z,3.25
2022-09-16T14:52:58.508Z,7.53
2022-09-16T14:55:30.078Z,6.55
2022-09-16T14:57:59.760Z,2.92
2022-09-16T15:00:46.355Z,4.30
2022-09-16T15:03:29.889Z,9.43
2022-09-16T15:06:00.919Z,4.90
2022-09-16T15:08:47.265Z,5.65
2022-09-16T15:11:43.614Z,8.82
2022-09-16T15:14:11.037Z,6.57
2022-09-16T15:16:48.523Z,3.88
2022-09-16T15:19:38.598Z,6.65
2022-09-16T15:22:11.183Z,7.63
2022-09-16T15:24:41.396Z,5.95
2022-09-16T15:27:09.024Z,9.82
2022-09-16T15:29:49.779Z,8.70
2022-09-16T15:32:24.121Z,4.07
2022-09-16T15:35:10.605Z,6.65
2022-09-16T15:37:37.423Z,6.10
2022-09-16T15:40:21.112Z,7.65
2022-09-16T15:43:09.861Z,7.65
2022-09-16T15:45:37.460Z,3.00
2022-09-16T15:48:20.853Z,3.97
2022-09-16T15:50:54.665Z,5.00
2022-09-16T15:53:30.731Z,5.30
2022-09-16T15:56:01.533Z,5.40
2022-09-16T15:58:43.309Z,8.38
2022-09-16T16:01:53.072Z,5.00
2022-09-16T16:04:29.442Z,11.70
2022-09-16T16:07:05.285Z,7.88
2022-09-16T16:09:40.973Z,6.75
2022-09-16T16:12:10.963Z,7.88
2022-09-16T16:14:39.185Z,12.80
2022-09-16T16:17:22.262Z,8.27
2022-09-16T16:19:50.541Z,8.88
2022-09-16T16:22:18.025Z,7.38
2022-09-16T16:24:45.621Z,6.80
2022-09-16T16:27:12.424Z,9.43
2022-09-16T16:29:39.382Z,9.88
2022-09-16T16:32:15.737Z,11.38
2022-09-16T16:34:47.352Z,7.82
2022-09-16T16:37:33.819Z,13.98
2022-09-16T16:40:07.248Z,19.98
2022-09-16T16:42:34.804Z,24.67
2022-09-16T16:45:01.858Z,24.92
2022-09-16T16:47:28.781Z,29.67
2022-09-16T16:49:55.435Z,33.10
2022-09-16T16:52:22.561Z,33.67
2022-09-16T16:54:49.672Z,31.63
2022-09-16T16:57:16.572Z,36.75
2022-09-16T16:59:43.360Z,38.10
2022-09-16T17:02:12.011Z,32.83
2022-09-16T17:04:40.292Z,25.33
2022-09-16T17:07:26.275Z,26.40
2022-09-16T17:09:54.108Z,18.42
2022-09-16T17:12:21.359Z,20.65
2022-09-16T17:14:48.057Z,18.65
2022-09-16T17:17:14.835Z,17.08
2022-09-16T17:19:41.869Z,18.60
2022-09-16T17:22:08.553Z,19.88
2022-09-16T17:24:35.261Z,19.00
2022-09-16T17:27:02.381Z,17.55
2022-09-16T17:29:29.085Z,16.45
2022-09-16T17:31:57.209Z,18.15
2022-09-16T17:34:26.613Z,15.68
2022-09-16T17:36:53.336Z,15.02
2022-09-16T17:39:21.712Z,12.77
2022-09-16T17:41:49.755Z,17.00
2022-09-16T17:44:18.184Z,18.73
2022-09-16T17:46:47.218Z,21.95
2022-09-16T17:49:21.418Z,28.27
2022-09-16T17:51:48.607Z,48.88
2022-09-16T17:54:15.894Z,45.75
2022-09-16T17:56:43.786Z,43.90
2022-09-16T17:59:12.218Z,40.88
2022-09-16T18:01:39.718Z,49.08
2022-09-16T18:04:07.168Z,42.42
2022-09-16T18:06:40.814Z,41.58
2022-09-16T18:09:07.853Z,37.92
2022-09-16T18:11:38.493Z,58.65
2022-09-16T18:14:06.741Z,49.28
2022-09-16T18:16:33.759Z,43.88
2022-09-16T18:19:02.740Z,40.85
2022-09-16T18:21:30.183Z,36.35
2022-09-16T18:23:59.906Z,29.60
2022-09-16T18:26:27.542Z,26.00
2022-09-16T18:29:12.579Z,24.52
2022-09-16T18:31:42.230Z,23.27
2022-09-16T18:34:09.494Z,24.60
2022-09-16T18:36:37.827Z,21.35
2022-09-16T18:39:05.827Z,28.15
2022-09-16T18:41:37.182Z,26.50
2022-09-16T18:44:07.742Z,27.48
2022-09-16T18:46:36.959Z,25.77
2022-09-16T18:49:05.355Z,24.73
2022-09-16T18:51:37.521Z,23.95
2022-09-16T18:54:06.845Z,24.58
2022-09-16T18:56:35.916Z,25.45
2022-09-16T18:59:23.008Z,23.63
2022-09-16T19:01:55.058Z,24.17
2022-09-16T19:04:24.544Z,21.50
2022-09-16T19:06:53.850Z,18.75
2022-09-16T19:09:23.104Z,18.30
2022-09-16T19:11:52.862Z,15.30
2022-09-16T19:14:22.503Z,11.52
2022-09-16T19:16:49.219Z,8.48
2022-09-16T19:19:16.630Z,9.23
2022-09-16T19:21:43.703Z,11.13
2022-09-16T19:24:14.236Z,8.05
2022-09-16T19:26:42.226Z,6.03
2022-09-16T19:29:09.817Z,9.25
2022-09-16T19:31:38.853Z,9.52
2022-09-16T19:34:06.519Z,10.75
2022-09-16T19:36:34.327Z,8.85
2022-09-16T19:39:01.546Z,8.13
2022-09-16T19:41:30.633Z,8.98
2022-09-16T19:44:00.560Z,9.73
2022-09-16T19:46:28.588Z,13.77
2022-09-16T19:48:56.142Z,14.10
2022-09-16T19:51:24.255Z,14.20
2022-09-16T19:53:52.319Z,9.90
2022-09-16T19:56:26.088Z,16.48
2022-09-16T19:58:53.915Z,18.15
2022-09-16T20:01:26.229Z,15.63
2022-09-16T20:03:54.026Z,17.40
2022-09-16T20:06:28.466Z,17.20
2022-09-16T20:08:58.835Z,15.93
2022-09-16T20:13:59.166Z,29.45
2022-09-16T20:16:28.756Z,27.27
2022-09-16T20:18:55.945Z,28.35
2022-09-16T20:21:25.105Z,29.98
2022-09-16T20:23:53.105Z,25.27
2022-09-16T20:26:20.789Z,20.95
2022-09-16T20:28:52.414Z,19.23
2022-09-16T20:31:21.783Z,18.50
2022-09-16T20:33:48.977Z,15.20
2022-09-16T20:36:19.122Z,13.05
2022-09-16T20:38:46.946Z,12.63
2022-09-16T20:41:26.015Z,13.52
2022-09-16T20:43:53.091Z,13.55
2022-09-16T20:46:22.815Z,12.10
2022-09-16T20:48:52.874Z,10.35
2022-09-16T20:51:21.661Z,12.80
2022-09-16T20:54:07.343Z,13.90
2022-09-16T20:56:38.544Z,15.05
2022-09-16T20:59:10.922Z,14.77
2022-09-16T21:01:39.436Z,13.27
2022-09-16T21:04:08.576Z,11.98
2022-09-16T21:06:36.123Z,16.08
2022-09-16T21:09:05.663Z,13.18
2022-09-16T21:11:33.220Z,11.55
2022-09-16T21:14:02.377Z,14.13
2022-09-16T21:16:31.985Z,11.88
2022-09-16T21:19:00.925Z,15.48
2022-09-16T21:21:28.805Z,14.65
2022-09-16T21:23:58.038Z,15.05
2022-09-16T21:26:32.429Z,18.08
2022-09-16T21:29:01.245Z,14.25
2022-09-16T21:31:33.306Z,15.70
2022-09-16T21:34:03.149Z,16.50
2022-09-16T21:36:30.624Z,17.23
2022-09-16T21:38:58.850Z,17.88
2022-09-16T21:41:26.639Z,18.10
2022-09-16T21:43:56.220Z,14.57
2022-09-16T21:46:25.968Z,16.88
2022-09-16T21:48:56.324Z,18.25
2022-09-16T21:51:23.185Z,12.35
2022-09-16T21:53:49.901Z,11.93
2022-09-16T21:56:20.315Z,12.82
2022-09-16T22:01:18.110Z,10.48
2022-09-16T22:03:47.476Z,8.93
2022-09-16T22:06:18.454Z,10.02
2022-09-16T22:08:49.335Z,11.15
2022-09-16T22:11:19.563Z,9.70
2022-09-16T22:13:46.411Z,9.93
2022-09-16T22:16:16.862Z,11.82
2022-09-16T22:21:13.243Z,7.93
2022-09-16T22:23:40.993Z,10.88
2022-09-16T22:26:10.268Z,17.67
2022-09-16T22:28:37.901Z,10.02
2022-09-16T22:31:10.160Z,11.20
2022-09-16T22:33:38.412Z,9.90
2022-09-16T22:36:07.731Z,8.70
2022-09-16T22:38:34.631Z,10.43
2022-09-16T22:41:09.114Z,19.13
2022-09-16T22:43:46.915Z,15.40
2022-09-16T22:46:19.966Z,18.67
2022-09-16T22:48:47.240Z,14.27
2022-09-16T22:51:15.778Z,18.83
2022-09-16T22:53:44.540Z,24.13
2022-09-16T22:56:14.186Z,18.48
2022-09-16T22:58:41.744Z,15.65
2022-09-16T23:01:18.603Z,18.40
2022-09-16T23:03:46.977Z,15.30
2022-09-16T23:06:15.383Z,18.23
2022-09-16T23:08:45.505Z,16.05
2022-09-16T23:11:14.728Z,15.65
2022-09-16T23:13:42.443Z,18.35
2022-09-16T23:16:18.563Z,17.50
2022-09-16T23:18:46.595Z,20.52
2022-09-16T23:21:18.900Z,13.10
2022-09-16T23:23:48.339Z,17.10
2022-09-16T23:26:18.251Z,14.18
2022-09-16T23:28:45.816Z,14.40
2022-09-16T23:31:16.400Z,13.95
2022-09-16T23:33:44.376Z,11.02
2022-09-16T23:36:14.530Z,11.70
2022-09-16T23:38:42.300Z,15.95
2022-09-16T23:41:17.519Z,12.05
2022-09-16T23:43:44.533Z,21.08
2022-09-16T23:46:14.235Z,17.08
2022-09-16T23:48:42.690Z,15.40
2022-09-16T23:51:09.759Z,15.38
2022-09-16T23:53:37.860Z,17.23
2022-09-16T23:56:11.864Z,18.42
2022-09-16T23:58:40.146Z,18.48
